createdAt,value
2018-11-20T00:01:42.125Z,62.49
2018-11-20T00:07:16.596Z,62.62
2018-11-20T00:12:45.061Z,63.11
2018-11-20T00:18:06.181Z,62.95
2018-11-20T00:23:27.301Z,62.44
2018-11-20T00:28:39.499Z,62.72
2018-11-20T00:33:59.353Z,62.71
2018-11-20T00:39:33.822Z,62.78
2018-11-20T00:44:53.057Z,62.96
2018-11-20T00:50:05.950Z,63.29
2018-11-20T00:56:07.808Z,63.16
2018-11-20T01:01:33.822Z,62.71
2018-11-20T01:07:06.699Z,63.34
2018-11-20T01:12:27.475Z,62.80
2018-11-20T01:18:08.065Z,63.25
2018-11-20T01:23:36.424Z,63.10
2018-11-20T01:28:55.438Z,63.20
2018-11-20T01:34:16.310Z,62.96
2018-11-20T01:39:45.025Z,63.11
2018-11-20T01:45:06.251Z,63.28
2018-11-20T01:50:37.564Z,63.44
2018-11-20T01:55:58.358Z,62.94
2018-11-20T02:01:27.246Z,63.12
2018-11-20T02:06:48.450Z,63.32
2018-11-20T02:12:09.231Z,63.13
2018-11-20T02:17:53.089Z,63.01
2018-11-20T02:23:21.460Z,63.36
2018-11-20T02:28:42.522Z,63.51
2018-11-20T02:34:03.772Z,63.33
2018-11-20T02:39:25.824Z,63.88
2018-11-20T02:44:53.241Z,63.41
2018-11-20T02:50:14.149Z,63.74
2018-11-20T02:55:42.432Z,63.68
2018-11-20T03:01:11.262Z,63.88
2018-11-20T03:06:31.145Z,64.23
2018-11-20T03:12:02.249Z,63.66
2018-11-20T03:17:23.273Z,63.62
2018-11-20T03:22:44.330Z,63.76
2018-11-20T03:28:05.523Z,63.78
2018-11-20T03:33:25.612Z,63.60
2018-11-20T03:38:46.748Z,63.75
2018-11-20T03:44:14.867Z,63.83
2018-11-20T03:49:35.672Z,63.32
2018-11-20T03:54:48.196Z,63.85
2018-11-20T04:00:08.909Z,63.53
2018-11-20T04:05:40.337Z,63.43
2018-11-20T04:11:08.539Z,63.39
2018-11-20T04:16:36.535Z,63.35
2018-11-20T04:21:52.652Z,63.96
2018-11-20T04:27:17.604Z,63.82
2018-11-20T04:32:45.065Z,63.99
2018-11-20T04:38:00.452Z,64.01
2018-11-20T04:43:28.487Z,64.12
2018-11-20T04:48:46.812Z,63.72
2018-11-20T04:54:11.732Z,64.15
2018-11-20T04:59:36.702Z,63.82
2018-11-20T05:04:58.988Z,63.96
2018-11-20T05:10:11.901Z,63.72
2018-11-20T05:15:49.598Z,63.65
2018-11-20T05:21:21.011Z,63.85
2018-11-20T05:26:49.424Z,64.03
2018-11-20T05:32:18.691Z,63.95
2018-11-20T05:37:53.013Z,64.11
2018-11-20T05:43:33.339Z,64.25
2018-11-20T05:48:54.393Z,64.41
2018-11-20T05:54:15.188Z,64.01
2018-11-20T05:59:49.218Z,64.70
2018-11-20T06:05:20.413Z,64.36
2018-11-20T06:10:41.533Z,64.33
2018-11-20T06:16:02.360Z,64.33
2018-11-20T06:21:24.936Z,64.25
2018-11-20T06:26:49.805Z,64.55
2018-11-20T06:32:17.874Z,64.74
2018-11-20T06:37:38.787Z,64.54
2018-11-20T06:43:00.056Z,65.13
2018-11-20T06:48:37.736Z,64.76
2018-11-20T06:54:08.814Z,64.90
2018-11-20T06:59:39.825Z,65.00
2018-11-20T07:05:17.373Z,65.50
2018-11-20T07:10:38.682Z,65.34
2018-11-20T07:15:59.808Z,65.16
2018-11-20T07:21:12.523Z,65.36
2018-11-20T07:26:43.640Z,65.68
2018-11-20T07:32:07.511Z,65.17
2018-11-20T07:37:32.668Z,65.16
2018-11-20T07:43:04.277Z,65.30
2018-11-20T07:48:24.972Z,65.47
2018-11-20T07:53:49.928Z,65.25
2018-11-20T07:59:12.180Z,65.19
2018-11-20T08:04:33.386Z,65.52
2018-11-20T08:10:07.824Z,65.09
2018-11-20T08:15:33.086Z,65.08
2018-11-20T08:21:10.580Z,65.17
2018-11-20T08:26:34.838Z,65.27
2018-11-20T08:31:49.719Z,65.08
2018-11-20T08:37:17.786Z,65.09
2018-11-20T08:42:36.240Z,65.64
2018-11-20T08:47:56.297Z,65.12
2018-11-20T08:53:17.076Z,65.43
2018-11-20T08:58:37.873Z,65.11
2018-11-20T09:04:08.940Z,65.06
2018-11-20T09:09:43.454Z,65.26
2018-11-20T09:15:04.614Z,65.21
2018-11-20T09:20:25.504Z,65.24
2018-11-20T09:25:53.742Z,65.01
2018-11-20T09:31:13.995Z,64.74
2018-11-20T09:36:42.234Z,65.08
2018-11-20T09:42:11.828Z,64.62
2018-11-20T09:47:25.667Z,64.48
2018-11-20T09:52:50.838Z,64.75
2018-11-20T09:58:11.621Z,64.50
2018-11-20T10:03:26.319Z,64.67
2018-11-20T10:08:57.499Z,64.78
2018-11-20T10:14:25.296Z,64.72
2018-11-20T10:19:41.287Z,65.20
2018-11-20T10:25:02.086Z,64.95
2018-11-20T10:30:25.424Z,64.80
2018-11-20T10:35:56.913Z,65.66
2018-11-20T10:41:37.627Z,65.18
2018-11-20T10:46:55.989Z,65.31
2018-11-20T10:52:18.446Z,65.68
2018-11-20T10:57:39.987Z,65.27
2018-11-20T11:03:00.843Z,65.53
2018-11-20T11:08:21.828Z,65.94
2018-11-20T11:13:42.727Z,65.41
2018-11-20T11:19:05.323Z,65.83
2018-11-20T11:24:45.689Z,65.83
2018-11-20T11:30:10.524Z,65.97
2018-11-20T11:35:54.509Z,65.98
2018-11-20T11:41:25.741Z,65.58
2018-11-20T11:46:57.108Z,65.41
2018-11-20T11:52:25.520Z,65.50
2018-11-20T11:57:46.477Z,65.50
2018-11-20T12:08:28.924Z,65.13
2018-11-20T12:13:51.203Z,64.98
2018-11-20T12:19:12.505Z,65.73
2018-11-20T12:24:40.528Z,65.23
2018-11-20T12:30:13.441Z,65.99
2018-11-20T12:35:33.407Z,65.96
2018-11-20T12:40:53.650Z,66.36
2018-11-20T12:46:15.927Z,66.35
2018-11-20T12:51:36.796Z,66.73
2018-11-20T12:57:17.630Z,67.10
2018-11-20T13:02:55.254Z,67.42
2018-11-20T13:08:17.600Z,67.41
2018-11-20T13:13:33.284Z,67.81
2018-11-20T13:19:07.367Z,68.44
2018-11-20T13:24:41.678Z,68.77
2018-11-20T13:30:10.113Z,68.92
2018-11-20T13:35:31.041Z,69.21
2018-11-20T13:41:23.738Z,69.61
2018-11-20T13:46:46.760Z,69.82
2018-11-20T13:52:00.277Z,71.17
2018-11-20T13:57:18.981Z,72.45
2018-11-20T14:02:31.519Z,72.99
2018-11-20T14:07:52.642Z,73.52
2018-11-20T14:13:07.922Z,73.61
2018-11-20T14:18:36.834Z,73.86
2018-11-20T14:23:57.821Z,74.12
2018-11-20T14:29:18.693Z,74.50
2018-11-20T14:34:39.714Z,74.65
2018-11-20T14:40:02.006Z,74.74
2018-11-20T14:45:27.959Z,74.76
2018-11-20T14:51:05.782Z,74.88
2018-11-20T14:56:28.420Z,74.68
2018-11-20T15:01:50.615Z,74.47
2018-11-20T15:07:15.764Z,74.19
2018-11-20T15:12:36.982Z,74.33
2018-11-20T15:18:17.275Z,74.72
2018-11-20T15:23:26.205Z,74.40
2018-11-20T15:29:03.430Z,74.74
2018-11-20T15:34:40.705Z,74.74
2018-11-20T15:40:01.609Z,75.20
2018-11-20T15:45:26.694Z,74.89
2018-11-20T15:50:47.752Z,75.00
2018-11-20T15:56:25.002Z,75.09
2018-11-20T16:01:47.297Z,75.24
2018-11-20T16:07:13.948Z,74.87
2018-11-20T16:12:45.278Z,75.30
2018-11-20T16:18:10.266Z,74.98
2018-11-20T16:23:44.586Z,74.98
2018-11-20T16:29:12.633Z,74.87
2018-11-20T16:35:37.209Z,74.67
2018-11-20T16:40:53.796Z,74.96
2018-11-20T16:46:13.878Z,74.90
2018-11-20T16:51:35.964Z,74.93
2018-11-20T16:57:15.968Z,74.98
2018-11-20T17:02:36.065Z,74.75
2018-11-20T17:08:15.827Z,74.76
2018-11-20T17:18:04.457Z,74.81
2018-11-20T17:23:44.375Z,74.69
2018-11-20T17:29:08.509Z,74.61
2018-11-20T17:34:45.363Z,74.64
2018-11-20T17:40:06.881Z,74.56
2018-11-20T17:45:27.585Z,74.35
2018-11-20T17:50:49.141Z,74.63
2018-11-20T17:56:22.798Z,74.11
2018-11-20T18:01:43.267Z,74.24
2018-11-20T18:06:55.899Z,74.27
2018-11-20T18:12:09.471Z,74.40
2018-11-20T18:17:46.003Z,74.41
2018-11-20T18:23:25.695Z,74.52
2018-11-20T18:28:45.729Z,74.45
2018-11-20T18:34:24.824Z,74.17
2018-11-20T18:39:58.407Z,74.55
2018-11-20T18:45:18.587Z,74.73
2018-11-20T18:50:40.116Z,74.77
2018-11-20T18:56:00.378Z,74.82
2018-11-20T19:01:22.772Z,75.02
2018-11-20T19:07:02.372Z,75.09
2018-11-20T19:12:30.215Z,75.28
2018-11-20T19:18:03.780Z,75.08
2018-11-20T19:23:37.523Z,75.46
2018-11-20T19:29:04.863Z,75.07
2018-11-20T19:34:38.662Z,75.38
2018-11-20T19:40:12.349Z,75.25
2018-11-20T19:45:30.268Z,74.96
2018-11-20T19:50:44.378Z,75.18
2018-11-20T19:56:14.843Z,75.01
2018-11-20T20:01:30.201Z,75.10
2018-11-20T20:06:50.786Z,75.29
2018-11-20T20:12:15.179Z,75.59
2018-11-20T20:17:35.998Z,75.25
2018-11-20T20:22:47.661Z,75.92
2018-11-20T20:28:07.962Z,75.67
2018-11-20T20:33:27.973Z,75.81
2018-11-20T20:38:40.019Z,76.19
2018-11-20T20:43:59.069Z,76.59
2018-11-20T20:49:14.370Z,76.28
2018-11-20T20:54:41.709Z,76.27
2018-11-20T21:00:06.176Z,76.47
2018-11-20T21:05:46.139Z,76.12
2018-11-20T21:11:16.491Z,76.58
2018-11-20T21:16:44.148Z,77.12
2018-11-20T21:22:04.085Z,77.57
2018-11-20T21:27:22.357Z,77.17
2018-11-20T21:38:01.107Z,77.48
2018-11-20T21:43:21.444Z,77.13
2018-11-20T21:48:42.705Z,77.05
2018-11-20T21:54:10.630Z,77.14
2018-11-20T21:59:35.082Z,76.93
2018-11-20T22:04:55.083Z,77.17
2018-11-20T22:10:15.119Z,77.30
2018-11-20T22:15:42.571Z,77.28
2018-11-20T22:21:02.846Z,77.85
2018-11-20T22:26:33.095Z,77.84
2018-11-20T22:31:53.373Z,78.46
2018-11-20T22:37:10.285Z,78.14
2018-11-20T22:42:33.400Z,78.45
2018-11-20T22:47:52.893Z,78.83
2018-11-20T22:53:20.091Z,78.96
2018-11-20T22:58:27.265Z,79.18
2018-11-20T23:03:54.651Z,79.11
2018-11-20T23:08:56.600Z,78.65
2018-11-20T23:13:58.483Z,78.90
2018-11-20T23:19:00.505Z,78.67
2018-11-20T23:24:02.383Z,78.35
2018-11-20T23:29:04.319Z,78.38
2018-11-20T23:34:06.235Z,78.81
2018-11-20T23:39:08.797Z,79.03
2018-11-20T23:44:10.769Z,78.36
2018-11-20T23:49:15.464Z,78.07
2018-11-20T23:54:14.674Z,78.09
2018-11-20T23:59:17.036Z,78.07
